createdAt,value
2018-02-23T00:00:30.994Z,-1.30
2018-02-23T00:02:58.529Z,-1.30
2018-02-23T00:05:26.043Z,-1.30
2018-02-23T00:07:53.566Z,-1.30
2018-02-23T00:10:21.129Z,-1.30
2018-02-23T00:12:48.643Z,-1.30
2018-02-23T00:15:16.146Z,-1.30
2018-02-23T00:17:43.663Z,-1.30
2018-02-23T00:20:11.538Z,-1.30
2018-02-23T00:22:41.859Z,-1.20
2018-02-23T00:25:09.354Z,-1.20
2018-02-23T00:27:37.313Z,-1.20
2018-02-23T00:30:04.833Z,-1.30
2018-02-23T00:32:32.345Z,-1.30
2018-02-23T00:34:59.881Z,-1.30
2018-02-23T00:37:27.403Z,-1.30
2018-02-23T00:39:54.928Z,-1.30
2018-02-23T00:42:22.451Z,-1.30
2018-02-23T00:44:49.954Z,-1.30
2018-02-23T00:47:17.476Z,-1.30
2018-02-23T00:49:45.016Z,-1.30
2018-02-23T00:52:12.542Z,-1.30
2018-02-23T00:54:40.832Z,-1.30
2018-02-23T00:57:08.409Z,-1.30
2018-02-23T00:59:36.027Z,-1.30
2018-02-23T01:02:03.545Z,-1.20
2018-02-23T01:04:31.107Z,-1.30
2018-02-23T01:06:58.627Z,-1.30
2018-02-23T01:09:26.148Z,-1.20
2018-02-23T01:11:53.708Z,-1.20
2018-02-23T01:14:21.213Z,-1.20
2018-02-23T01:16:48.715Z,-1.20
2018-02-23T01:19:16.229Z,-1.10
2018-02-23T01:21:43.833Z,-1.10
2018-02-23T01:24:12.197Z,-1.10
2018-02-23T01:26:39.737Z,-1.10
2018-02-23T01:29:07.260Z,-1.00
2018-02-23T01:31:34.762Z,-1.00
2018-02-23T01:34:02.294Z,-1.00
2018-02-23T01:36:29.794Z,-1.00
2018-02-23T01:38:57.299Z,-0.90
2018-02-23T01:43:58.645Z,-0.90
2018-02-23T01:46:26.931Z,-0.80
2018-02-23T01:48:54.442Z,-0.80
2018-02-23T01:51:21.943Z,-0.80
2018-02-23T01:53:49.468Z,-0.80
2018-02-23T01:56:17.791Z,-0.80
2018-02-23T01:58:45.262Z,-0.80
2018-02-23T02:01:12.795Z,-0.70
2018-02-23T02:03:40.321Z,-0.70
2018-02-23T02:06:07.841Z,-0.70
2018-02-23T02:08:35.355Z,-0.70
2018-02-23T02:11:02.869Z,-0.70
2018-02-23T02:13:30.377Z,-0.70
2018-02-23T02:15:57.942Z,-0.60
2018-02-23T02:18:25.460Z,-0.70
2018-02-23T02:20:52.992Z,-0.60
2018-02-23T02:23:20.512Z,-0.60
2018-02-23T02:25:48.013Z,-0.60
2018-02-23T02:28:15.519Z,-0.60
2018-02-23T02:30:43.032Z,-0.60
2018-02-23T02:33:10.539Z,-0.60
2018-02-23T02:35:38.822Z,-0.60
2018-02-23T02:38:07.148Z,-0.60
2018-02-23T02:40:34.679Z,-0.60
2018-02-23T02:43:02.195Z,-0.50
2018-02-23T02:45:29.721Z,-0.50
2018-02-23T02:47:57.228Z,-0.50
2018-02-23T02:50:24.737Z,-0.50
2018-02-23T02:52:52.268Z,-0.50
2018-02-23T02:55:19.762Z,-0.50
2018-02-23T02:57:48.023Z,-0.60
2018-02-23T03:00:15.620Z,-0.60
2018-02-23T03:02:43.131Z,-0.50
2018-02-23T03:05:10.633Z,-0.50
2018-02-23T03:07:38.161Z,-0.50
2018-02-23T03:10:05.670Z,-0.50
2018-02-23T03:12:33.948Z,-0.50
2018-02-23T03:15:02.248Z,-0.50
2018-02-23T03:17:30.555Z,-0.50
2018-02-23T03:19:58.054Z,-0.50
2018-02-23T03:22:25.583Z,-0.50
2018-02-23T03:24:53.078Z,-0.50
2018-02-23T03:27:21.351Z,-0.40
2018-02-23T03:29:48.889Z,-0.50
2018-02-23T03:32:16.394Z,-0.40
2018-02-23T03:34:43.900Z,-0.40
2018-02-23T03:37:11.427Z,-0.50
2018-02-23T03:39:38.945Z,-0.50
2018-02-23T03:42:06.466Z,-0.50
2018-02-23T03:44:34.001Z,-0.40
2018-02-23T03:47:01.502Z,-0.40
2018-02-23T03:49:29.022Z,-0.40
2018-02-23T03:51:56.538Z,-0.40
2018-02-23T03:54:24.039Z,-0.40
2018-02-23T03:56:52.304Z,-0.40
2018-02-23T03:59:19.878Z,-0.40
2018-02-23T04:01:47.384Z,-0.40
2018-02-23T04:04:14.883Z,-0.40
2018-02-23T04:06:42.415Z,-0.40
2018-02-23T04:09:09.931Z,-0.40
2018-02-23T04:11:37.446Z,-0.40
2018-02-23T04:14:04.972Z,-0.40
2018-02-23T04:16:32.475Z,-0.40
2018-02-23T04:18:59.975Z,-0.40
2018-02-23T04:21:28.270Z,-0.40
2018-02-23T04:23:55.781Z,-0.40
2018-02-23T04:26:23.294Z,-0.40
2018-02-23T04:28:50.813Z,-0.30
2018-02-23T04:31:18.332Z,-0.40
2018-02-23T04:33:45.852Z,-0.40
2018-02-23T04:36:14.139Z,-0.40
2018-02-23T04:38:41.653Z,-0.40
2018-02-23T04:41:09.160Z,-0.40
2018-02-23T04:43:36.674Z,-0.40
2018-02-23T04:46:04.180Z,-0.40
2018-02-23T04:48:31.690Z,-0.40
2018-02-23T04:50:59.217Z,-0.40
2018-02-23T04:53:26.759Z,-0.40
2018-02-23T04:55:54.342Z,-0.50
2018-02-23T04:58:21.868Z,-0.40
2018-02-23T05:00:49.387Z,-0.50
2018-02-23T05:03:16.889Z,-0.50
2018-02-23T05:05:44.419Z,-0.40
2018-02-23T05:08:12.696Z,-0.50
2018-02-23T05:10:40.962Z,-0.50
2018-02-23T05:13:08.492Z,-0.50
2018-02-23T05:15:35.993Z,-0.40
2018-02-23T05:18:04.259Z,-0.40
2018-02-23T05:20:31.787Z,-0.50
2018-02-23T05:22:59.283Z,-0.40
2018-02-23T05:25:27.550Z,-0.40
2018-02-23T05:27:55.851Z,-0.50
2018-02-23T05:30:23.365Z,-0.50
2018-02-23T05:32:50.892Z,-0.50
2018-02-23T05:35:18.424Z,-0.50
2018-02-23T05:37:45.930Z,-0.50
2018-02-23T05:40:13.424Z,-0.50
2018-02-23T05:42:40.948Z,-0.40
2018-02-23T05:45:08.463Z,-0.50
2018-02-23T05:47:35.959Z,-0.50
2018-02-23T05:50:03.474Z,-0.50
2018-02-23T05:52:30.977Z,-0.50
2018-02-23T05:54:58.483Z,-0.50
2018-02-23T05:57:26.007Z,-0.50
2018-02-23T05:59:53.528Z,-0.50
2018-02-23T06:02:21.044Z,-0.50
2018-02-23T06:04:48.568Z,-0.50
2018-02-23T06:07:16.094Z,-0.60
2018-02-23T06:09:43.587Z,-0.60
2018-02-23T06:12:11.104Z,-0.60
2018-02-23T06:14:38.620Z,-0.60
2018-02-23T06:17:12.653Z,-0.60
2018-02-23T06:19:45.893Z,-0.60
2018-02-23T06:22:13.618Z,-0.50
2018-02-23T06:24:41.161Z,-0.50
2018-02-23T06:27:09.426Z,-0.50
2018-02-23T06:29:37.977Z,-0.50
2018-02-23T06:32:05.494Z,-0.50
2018-02-23T06:34:33.027Z,-0.50
2018-02-23T06:37:01.319Z,-0.60
2018-02-23T06:39:28.837Z,-0.60
2018-02-23T06:41:56.349Z,-0.60
2018-02-23T06:44:24.013Z,-0.60
2018-02-23T06:46:58.033Z,-0.60
2018-02-23T06:49:25.557Z,-0.60
2018-02-23T06:51:53.097Z,-0.60
2018-02-23T06:54:20.601Z,-0.60
2018-02-23T06:56:48.123Z,-0.60
2018-02-23T06:59:16.395Z,-0.60
2018-02-23T07:01:44.679Z,-0.60
2018-02-23T07:04:13.241Z,-0.50
2018-02-23T07:06:40.757Z,-0.50
2018-02-23T07:09:08.321Z,-0.50
2018-02-23T07:11:35.840Z,-0.60
2018-02-23T07:14:04.154Z,-0.60
2018-02-23T07:16:31.661Z,-0.60
2018-02-23T07:18:59.182Z,-0.60
2018-02-23T07:21:26.701Z,-0.70
2018-02-23T07:23:54.231Z,-0.60
2018-02-23T07:26:21.760Z,-0.60
2018-02-23T07:28:49.329Z,-0.50
2018-02-23T07:31:16.831Z,-0.50
2018-02-23T07:33:44.370Z,-0.50
2018-02-23T07:36:11.937Z,-0.60
2018-02-23T07:38:39.422Z,-0.60
2018-02-23T07:41:06.956Z,-0.60
2018-02-23T07:43:34.869Z,-0.50
2018-02-23T07:46:02.445Z,-0.40
2018-02-23T07:48:30.181Z,-0.50
2018-02-23T07:50:57.691Z,-0.40
2018-02-23T07:53:25.982Z,-0.50
2018-02-23T07:55:54.307Z,-0.50
2018-02-23T07:58:21.911Z,-0.50
2018-02-23T08:00:50.189Z,-0.40
2018-02-23T08:03:18.502Z,-0.40
2018-02-23T08:05:46.025Z,-0.40
2018-02-23T08:08:14.423Z,-0.40
2018-02-23T08:10:41.987Z,-0.40
2018-02-23T08:13:09.528Z,-0.30
2018-02-23T08:15:37.035Z,-0.30
2018-02-23T08:18:05.083Z,-0.30
2018-02-23T08:20:32.589Z,-0.20
2018-02-23T08:23:00.197Z,-0.20
2018-02-23T08:25:27.961Z,-0.20
2018-02-23T08:27:55.629Z,-0.20
2018-02-23T08:30:23.154Z,-0.10
2018-02-23T08:32:51.472Z,0.00
2018-02-23T08:35:18.972Z,-0.10
2018-02-23T08:37:46.482Z,0.00
2018-02-23T08:40:14.011Z,0.00
2018-02-23T08:42:41.506Z,0.00
2018-02-23T08:45:09.723Z,0.10
2018-02-23T08:47:37.271Z,0.10
2018-02-23T08:50:04.780Z,0.20
2018-02-23T08:52:32.286Z,0.20
2018-02-23T08:54:59.813Z,0.20
2018-02-23T08:57:27.353Z,0.30
2018-02-23T08:59:54.909Z,0.30
2018-02-23T09:02:22.435Z,0.40
2018-02-23T09:04:50.712Z,0.40
2018-02-23T09:07:18.228Z,0.40
2018-02-23T09:09:45.747Z,0.40
2018-02-23T09:12:13.254Z,0.40
2018-02-23T09:14:40.784Z,0.40
2018-02-23T09:17:08.303Z,0.50
2018-02-23T09:19:35.814Z,0.50
2018-02-23T09:22:03.339Z,0.40
2018-02-23T09:24:31.122Z,0.40
2018-02-23T09:26:58.610Z,0.50
2018-02-23T09:29:26.182Z,0.50
2018-02-23T09:31:54.082Z,0.50
2018-02-23T09:34:33.463Z,0.60
2018-02-23T09:37:01.268Z,0.50
2018-02-23T09:39:28.762Z,0.60
2018-02-23T09:41:56.281Z,0.60
2018-02-23T09:44:24.180Z,0.60
2018-02-23T09:46:51.679Z,0.70
2018-02-23T09:49:19.198Z,0.80
2018-02-23T09:51:47.017Z,0.70
2018-02-23T09:54:14.517Z,0.80
2018-02-23T09:56:42.027Z,0.80
2018-02-23T09:59:09.840Z,0.90
2018-02-23T10:01:37.367Z,0.90
2018-02-23T10:04:05.639Z,1.00
2018-02-23T10:06:33.643Z,0.90
2018-02-23T10:09:01.152Z,1.00
2018-02-23T10:11:28.648Z,1.00
2018-02-23T10:13:56.622Z,1.00
2018-02-23T10:16:24.123Z,1.00
2018-02-23T10:18:51.622Z,1.10
2018-02-23T10:21:20.209Z,1.20
2018-02-23T10:23:48.467Z,1.40
2018-02-23T10:26:16.734Z,1.40
2018-02-23T10:28:45.928Z,1.40
2018-02-23T10:31:13.424Z,1.40
2018-02-23T10:33:41.085Z,1.50
2018-02-23T10:36:08.615Z,1.50
2018-02-23T10:38:36.892Z,1.50
2018-02-23T10:41:04.403Z,1.50
2018-02-23T10:43:31.936Z,1.40
2018-02-23T10:45:59.496Z,1.50
2018-02-23T10:48:27.007Z,1.40
2018-02-23T10:50:54.592Z,1.50
2018-02-23T10:53:22.045Z,1.40
2018-02-23T10:55:50.321Z,1.50
2018-02-23T10:58:18.614Z,1.60
2018-02-23T11:00:46.116Z,1.60
2018-02-23T11:03:13.625Z,1.70
2018-02-23T11:05:41.176Z,1.80
2018-02-23T11:08:09.459Z,1.90
2018-02-23T11:10:37.719Z,1.90
2018-02-23T11:13:06.007Z,1.90
2018-02-23T11:15:33.565Z,1.90
2018-02-23T11:18:01.831Z,2.10
2018-02-23T11:20:30.136Z,2.30
2018-02-23T11:22:57.635Z,2.30
2018-02-23T11:25:25.139Z,2.30
2018-02-23T11:27:53.007Z,2.20
2018-02-23T11:30:21.268Z,2.20
2018-02-23T11:32:48.770Z,2.20
2018-02-23T11:35:16.325Z,2.20
2018-02-23T11:37:43.905Z,2.30
2018-02-23T11:40:11.445Z,2.30
2018-02-23T11:42:38.971Z,2.30
2018-02-23T11:45:07.265Z,2.40
2018-02-23T11:47:34.861Z,2.40
2018-02-23T11:50:02.395Z,2.50
2018-02-23T11:52:29.875Z,2.40
2018-02-23T11:54:57.371Z,2.40
2018-02-23T11:57:31.368Z,2.50
2018-02-23T11:59:58.879Z,2.50
2018-02-23T12:02:26.368Z,2.60
2018-02-23T12:04:53.896Z,2.60
2018-02-23T12:07:21.383Z,2.60
2018-02-23T12:09:48.884Z,2.80
2018-02-23T12:12:16.456Z,3.00
2018-02-23T12:14:44.209Z,3.00
2018-02-23T12:17:11.709Z,3.10
2018-02-23T12:19:39.227Z,3.20
2018-02-23T12:22:07.602Z,3.30
2018-02-23T12:24:35.133Z,3.30
2018-02-23T12:27:02.669Z,3.40
2018-02-23T12:29:30.168Z,3.50
2018-02-23T12:31:58.452Z,4.00
2018-02-23T12:34:26.727Z,4.30
2018-02-23T12:36:54.217Z,4.30
2018-02-23T12:39:21.785Z,4.80
2018-02-23T12:41:49.305Z,5.20
2018-02-23T12:44:17.750Z,5.80
2018-02-23T12:46:45.236Z,6.30
2018-02-23T12:49:12.809Z,6.80
2018-02-23T12:51:40.434Z,6.60
2018-02-23T12:54:07.939Z,6.50
2018-02-23T12:56:35.454Z,7.00
2018-02-23T12:59:03.028Z,7.20
2018-02-23T13:01:30.517Z,7.20
2018-02-23T13:03:58.032Z,7.80
2018-02-23T13:06:25.745Z,8.10
2018-02-23T13:08:53.446Z,8.00
2018-02-23T13:11:21.038Z,8.20
2018-02-23T13:13:54.250Z,8.30
2018-02-23T13:16:22.582Z,8.60
2018-02-23T13:18:50.086Z,8.60
2018-02-23T13:21:17.735Z,8.50
2018-02-23T13:23:45.302Z,8.20
2018-02-23T13:26:13.522Z,7.60
2018-02-23T13:28:44.995Z,7.60
2018-02-23T13:31:12.518Z,7.60
2018-02-23T13:33:40.014Z,7.50
2018-02-23T13:36:08.485Z,7.10
2018-02-23T13:38:36.117Z,6.80
2018-02-23T13:44:05.763Z,6.30
2018-02-23T13:46:33.265Z,6.80
2018-02-23T13:49:00.756Z,7.10
2018-02-23T13:51:28.280Z,7.50
2018-02-23T13:54:01.500Z,7.80
2018-02-23T13:56:29.055Z,7.80
2018-02-23T13:58:57.336Z,7.60
2018-02-23T14:01:24.859Z,7.60
2018-02-23T14:03:52.744Z,8.00
2018-02-23T14:06:25.818Z,8.30
2018-02-23T14:08:53.368Z,7.90
2018-02-23T14:11:21.041Z,8.30
2018-02-23T14:13:48.531Z,8.50
2018-02-23T14:16:16.057Z,8.20
2018-02-23T14:18:43.587Z,7.90
2018-02-23T14:21:11.853Z,8.20
2018-02-23T14:23:39.400Z,8.20
2018-02-23T14:26:06.902Z,8.00
2018-02-23T14:28:34.539Z,7.50
2018-02-23T14:31:02.838Z,7.90
2018-02-23T14:33:30.402Z,7.90
2018-02-23T14:35:57.923Z,8.10
2018-02-23T14:38:25.522Z,7.80
2018-02-23T14:40:53.283Z,7.50
2018-02-23T14:43:20.825Z,7.60
2018-02-23T14:45:48.316Z,7.90
2018-02-23T14:48:28.280Z,7.30
2018-02-23T14:51:07.768Z,7.30
2018-02-23T14:53:36.039Z,7.40
2018-02-23T14:56:04.453Z,7.60
2018-02-23T14:58:31.972Z,7.60
2018-02-23T15:00:59.501Z,7.70
2018-02-23T16:23:02.661Z,4.20
2018-02-23T16:25:30.180Z,4.00
2018-02-23T16:27:57.693Z,4.00
2018-02-23T16:30:26.060Z,3.70
2018-02-23T16:32:53.588Z,3.60
2018-02-23T16:35:21.856Z,3.10
2018-02-23T16:37:49.744Z,3.10
2018-02-23T16:40:17.235Z,3.00
2018-02-23T16:42:44.745Z,2.80
2018-02-23T16:45:13.046Z,2.60
2018-02-23T16:47:40.544Z,2.60
2018-02-23T16:50:08.059Z,2.50
2018-02-23T16:52:35.586Z,2.50
2018-02-23T16:55:03.094Z,2.40
2018-02-23T16:57:30.777Z,2.30
2018-02-23T16:59:58.395Z,2.20
2018-02-23T17:02:25.917Z,2.10
2018-02-23T17:04:53.421Z,2.10
2018-02-23T17:07:20.942Z,2.10
2018-02-23T17:09:49.226Z,1.90
2018-02-23T17:12:17.499Z,1.80
2018-02-23T17:14:45.874Z,1.70
2018-02-23T17:17:14.277Z,1.80
2018-02-23T17:19:41.831Z,1.70
2018-02-23T17:22:10.144Z,1.60
2018-02-23T17:24:37.788Z,1.60
2018-02-23T17:27:05.696Z,1.50
2018-02-23T17:29:33.321Z,1.50
2018-02-23T17:32:00.884Z,1.40
2018-02-23T17:34:28.434Z,1.30
2018-02-23T17:36:56.084Z,1.30
2018-02-23T17:39:23.656Z,1.30
2018-02-23T17:41:51.202Z,1.30
2018-02-23T17:44:18.792Z,1.10
2018-02-23T17:46:47.188Z,1.10
2018-02-23T17:49:14.724Z,1.00
2018-02-23T17:51:42.247Z,1.00
2018-02-23T17:54:09.741Z,0.90
2018-02-23T17:56:37.243Z,0.90
2018-02-23T17:59:06.157Z,0.80
2018-02-23T18:01:33.705Z,0.70
2018-02-23T18:04:01.999Z,0.70
2018-02-23T18:06:29.551Z,0.70
2018-02-23T18:08:57.060Z,0.70
2018-02-23T18:11:25.396Z,0.60
2018-02-23T18:13:52.926Z,0.60
2018-02-23T18:16:20.504Z,0.60
2018-02-23T18:18:48.095Z,0.50
2018-02-23T18:21:15.710Z,0.40
2018-02-23T18:23:44.010Z,0.30
2018-02-23T18:26:11.545Z,0.30
2018-02-23T18:28:40.151Z,0.30
2018-02-23T18:31:07.703Z,0.30
2018-02-23T18:33:35.214Z,0.30
2018-02-23T18:36:02.782Z,0.30
2018-02-23T18:38:30.299Z,0.30
2018-02-23T18:40:57.812Z,0.20
2018-02-23T18:43:26.137Z,0.20
2018-02-23T18:45:53.685Z,0.20
2018-02-23T18:48:21.455Z,0.10
2018-02-23T18:50:48.984Z,0.10
2018-02-23T18:53:16.500Z,0.00
2018-02-23T18:55:44.085Z,0.00
2018-02-23T18:58:12.819Z,0.00
2018-02-23T19:00:40.368Z,0.00
2018-02-23T19:03:07.932Z,-0.10
2018-02-23T19:05:35.877Z,-0.20
2018-02-23T19:08:03.413Z,-0.20
2018-02-23T19:10:31.737Z,-0.20
2018-02-23T19:12:59.772Z,-0.20
2018-02-23T19:15:28.144Z,-0.30
2018-02-23T19:17:56.519Z,-0.30
2018-02-23T19:20:24.891Z,-0.30
2018-02-23T19:22:52.508Z,-0.30
2018-02-23T19:25:20.110Z,-0.30
2018-02-23T19:27:48.438Z,-0.30
2018-02-23T19:30:15.994Z,-0.30
2018-02-23T19:32:43.622Z,-0.30
2018-02-23T19:35:11.236Z,-0.40
2018-02-23T19:37:38.833Z,-0.30
2018-02-23T19:40:06.587Z,-0.30
2018-02-23T19:42:34.978Z,-0.30
2018-02-23T19:45:02.576Z,-0.30
2018-02-23T19:47:30.147Z,-0.30
2018-02-23T19:49:57.787Z,-0.40
2018-02-23T19:52:25.333Z,-0.50
2018-02-23T19:54:52.998Z,-0.50
2018-02-23T19:57:20.615Z,-0.50
2018-02-23T19:59:48.216Z,-0.50
2018-02-23T20:02:15.829Z,-0.50
2018-02-23T20:04:43.470Z,-0.60
2018-02-23T20:07:11.180Z,-0.50
2018-02-23T20:09:39.528Z,-0.60
2018-02-23T20:12:07.173Z,-0.60
2018-02-23T20:14:34.765Z,-0.60
2018-02-23T20:17:03.211Z,-0.60
2018-02-23T20:19:30.866Z,-0.60
2018-02-23T20:21:58.528Z,-0.60
2018-02-23T20:24:26.097Z,-0.60
2018-02-23T20:26:54.662Z,-0.60
2018-02-23T20:29:22.285Z,-0.60
2018-02-23T20:31:50.660Z,-0.70
2018-02-23T20:34:18.263Z,-0.70
2018-02-23T20:36:45.906Z,-0.70
2018-02-23T20:39:13.506Z,-0.70
2018-02-23T20:41:41.249Z,-0.80
2018-02-23T20:44:09.833Z,-0.80
2018-02-23T20:46:38.366Z,-0.80
2018-02-23T20:49:06.812Z,-0.90
2018-02-23T20:51:34.406Z,-0.90
2018-02-23T20:54:02.931Z,-0.90
2018-02-23T20:56:30.607Z,-0.90
2018-02-23T20:58:58.175Z,-0.90
2018-02-23T21:01:25.771Z,-0.90
2018-02-23T21:03:53.392Z,-1.00
2018-02-23T21:06:20.985Z,-1.00
2018-02-23T21:08:49.294Z,-0.90
2018-02-23T21:11:16.875Z,-1.00
2018-02-23T21:13:44.515Z,-0.90
2018-02-23T21:16:12.141Z,-0.90
2018-02-23T21:18:39.774Z,-1.00
2018-02-23T21:21:07.365Z,-1.00
2018-02-23T21:23:36.013Z,-1.00
2018-02-23T21:26:04.441Z,-1.00
2018-02-23T21:28:32.023Z,-1.10
2018-02-23T21:30:59.574Z,-1.00
2018-02-23T21:33:27.251Z,-1.00
2018-02-23T21:35:54.834Z,-1.10
2018-02-23T21:38:22.408Z,-1.20
2018-02-23T21:40:50.071Z,-1.20
2018-02-23T21:43:17.656Z,-1.20
2018-02-23T21:45:45.214Z,-1.20
2018-02-23T21:48:13.614Z,-1.20
2018-02-23T21:50:41.182Z,-1.30
2018-02-23T21:53:08.746Z,-1.30
2018-02-23T21:55:36.864Z,-1.30
2018-02-23T21:58:04.462Z,-1.30
2018-02-23T22:00:32.743Z,-1.30
2018-02-23T22:03:00.283Z,-1.30
2018-02-23T22:05:28.589Z,-1.40
2018-02-23T22:07:56.204Z,-1.40
2018-02-23T22:10:23.728Z,-1.40
2018-02-23T22:12:51.258Z,-1.40
2018-02-23T22:15:18.821Z,-1.40
2018-02-23T22:17:46.349Z,-1.50
2018-02-23T22:20:14.673Z,-1.50
2018-02-23T22:22:42.226Z,-1.50
2018-02-23T22:25:09.785Z,-1.50
2018-02-23T22:27:37.368Z,-1.50
2018-02-23T22:30:04.908Z,-1.60
2018-02-23T22:32:32.496Z,-1.60
2018-02-23T22:35:00.052Z,-1.60
2018-02-23T22:37:27.552Z,-1.60
2018-02-23T22:39:55.952Z,-1.70
2018-02-23T22:42:23.480Z,-1.70
2018-02-23T22:44:51.015Z,-1.60
2018-02-23T22:47:19.360Z,-1.70
2018-02-23T22:49:46.864Z,-1.70
2018-02-23T22:52:14.431Z,-1.70
2018-02-23T22:54:42.707Z,-1.80
2018-02-23T22:57:10.240Z,-1.80
2018-02-23T22:59:37.804Z,-1.80
2018-02-23T23:02:05.331Z,-1.80
2018-02-23T23:04:32.942Z,-1.80
2018-02-23T23:07:01.273Z,-1.80
2018-02-23T23:09:28.821Z,-1.80
2018-02-23T23:11:56.452Z,-1.80
2018-02-23T23:14:23.971Z,-1.90
2018-02-23T23:16:51.672Z,-1.80
2018-02-23T23:19:19.244Z,-1.90
2018-02-23T23:21:46.772Z,-1.90
2018-02-23T23:24:14.365Z,-1.90
2018-02-23T23:26:41.868Z,-1.90
2018-02-23T23:29:09.392Z,-1.90
2018-02-23T23:31:36.912Z,-2.00
2018-02-23T23:34:05.205Z,-2.00
2018-02-23T23:36:33.055Z,-2.00
2018-02-23T23:39:01.366Z,-2.10
2018-02-23T23:41:28.879Z,-2.10
2018-02-23T23:43:56.576Z,-2.00
2018-02-23T23:46:24.144Z,-2.00
2018-02-23T23:48:51.738Z,-2.10
2018-02-23T23:51:19.281Z,-2.10
2018-02-23T23:53:46.861Z,-2.10
2018-02-23T23:56:14.774Z,-2.10
2018-02-23T23:58:42.323Z,-2.00
